Bordj Bou Arreridj, Algeria
Current Conditions -  °F | °C
As of 2:00 PM on Friday 19 Dec 2014 (Local Time) from DAAS Reporting Station
Broken Clouds Broken Clouds  
Wind Chill: 54°   Ceiling: 2600
Heat Index: 54°   Visibility: 6mi
Dew Point: 46°   Wind: 12mph
Humidity: 77%   Direction: 320°NW
Pressure: 30.39"   Gusts: NA
Location:  36.06°N, 4.63°E
Report Text: DAAS 191300Z 32010KT 9999 FEW010 BKN026 12/08 Q1029
Loading
Personal Weather Stations






























Interactive Weather Map New forecast layout! Learn more

10-Day Weather Forecast

Advertisements
Track Severe Weather on mobile